Time;durP1;ratioP1;P1;durP2;ratioP2;P2;SDS_P1;SDS_P2;PMS_P1;PMS_P2;Temp;Humidity;BMP_temperature;BMP_pressure;BME280_temperature;BME280_humidity;BME280_pressure;Samples;Min_cycle;Max_cycle;Signal;HPM_P1;HPM_P2
2022/09/04 00:00:19;;;;;;;;;15.00;14.00;;;;;21.20;56.97;101086.81;4901958;28;45350;-86
2022/09/04 00:02:57;;;;;;;;;17.25;13.75;;;;;21.19;57.13;101082.50;4885985;28;45525;-86
2022/09/04 00:05:44;;;;;;;;;20.00;14.25;;;;;21.15;57.14;101085.44;4917616;28;47483;-86
2022/09/04 00:08:54;;;;;;;;;15.25;12.50;;;;;21.13;57.13;101084.69;4917473;28;45500;-86
2022/09/04 00:11:30;;;;;;;;;15.00;15.00;;;;;21.08;56.62;101090.31;4901448;28;45290;-87
2022/09/04 00:14:01;;;;;;;;;15.50;15.50;;;;;21.05;56.34;101093.16;4917428;28;45376;-87
2022/09/04 00:16:31;;;;;;;;;16.25;14.00;;;;;21.04;56.25;101094.97;4960626;28;45503;-87
2022/09/04 00:19:04;;;;;;;;;12.50;12.00;;;;;21.04;55.85;101110.84;4994733;28;45682;-87
2022/09/04 00:21:35;;;;;;;;;11.75;11.25;;;;;21.04;55.96;101102.03;4978576;28;45385;-86
2022/09/04 00:24:09;;;;;;;;;11.50;10.75;;;;;21.06;55.94;101097.50;4978447;28;45549;-88
2022/09/04 00:27:12;;;;;;;;;15.75;13.00;;;;;21.06;55.63;101108.94;4977930;28;45468;-88
2022/09/04 00:30:00;;;;;;;;;10.00;10.00;;;;;21.07;55.88;101112.44;5056791;28;45784;-87
2022/09/04 00:32:38;;;;;;;;;11.00;11.00;;;;;21.06;55.50;101108.94;5056584;28;45392;-87
2022/09/04 00:35:16;;;;;;;;;13.75;12.25;;;;;21.00;55.31;101113.78;5056956;28;45317;-87
2022/09/04 00:37:46;;;;;;;;;11.00;10.75;;;;;20.99;55.23;101106.81;5038421;28;45459;-87
2022/09/04 00:40:37;;;;;;;;;11.00;9.50;;;;;20.99;55.20;101114.75;5037906;28;45721;-87
2022/09/04 00:43:57;;;;;;;;;13.75;11.00;;;;;21.00;55.55;101114.63;5047241;28;45281;-87
2022/09/04 00:46:36;;;;;;;;;10.75;9.75;;;;;20.97;55.25;101116.63;4974940;28;45391;-87
2022/09/04 00:49:27;;;;;;;;;11.00;10.00;;;;;20.94;54.46;101116.84;4974695;28;46689;-87
2022/09/04 00:52:06;;;;;;;;;15.00;10.50;;;;;20.93;55.48;101123.97;4974524;28;45343;-87
2022/09/04 00:54:46;;;;;;;;;13.00;9.00;;;;;20.91;55.29;101122.34;4974439;28;45417;-87
2022/09/04 00:57:49;;;;;;;;;8.00;8.00;;;;;20.89;55.06;101125.09;4974673;28;45438;-87
2022/09/04 01:00:17;;;;;;;;;8.00;8.00;;;;;20.88;54.98;101123.41;4958442;28;46700;-87
2022/09/04 01:02:57;;;;;;;;;8.75;7.75;;;;;20.87;55.42;101129.63;4958472;28;45861;-87
2022/09/04 01:05:47;;;;;;;;;10.00;7.50;;;;;20.85;55.14;101126.25;4958766;28;45420;-87
2022/09/04 01:08:39;;;;;;;;;11.00;8.75;;;;;20.85;55.48;101131.53;4958141;28;45473;-87
2022/09/04 01:11:37;;;;;;;;;11.50;9.25;;;;;20.84;55.18;101135.16;4958099;28;47362;-87
2022/09/04 01:14:32;;;;;;;;;7.75;7.75;;;;;20.82;55.19;101137.00;4974407;28;45411;-87
2022/09/04 01:17:03;;;;;;;;;8.50;7.00;;;;;20.82;55.56;101137.00;4974434;28;45327;-88
2022/09/04 01:19:52;;;;;;;;;8.75;8.75;;;;;20.78;54.84;101133.75;4984276;28;45337;-87
2022/09/04 01:22:29;;;;;;;;;9.25;8.75;;;;;20.72;55.18;101144.72;5055844;28;46684;-87
2022/09/04 01:25:29;;;;;;;;;8.00;7.50;;;;;20.65;54.38;101141.63;5055731;28;45651;-87
2022/09/04 01:28:10;;;;;;;;;9.25;8.00;;;;;20.63;55.18;101140.03;5038144;28;45404;-87
2022/09/04 01:30:50;;;;;;;;;9.00;7.00;;;;;20.59;54.90;101152.56;5056146;28;45413;-87
2022/09/04 01:33:37;;;;;;;;;11.75;7.75;;;;;20.53;54.22;101154.78;5037685;28;46404;-87
2022/09/04 01:36:27;;;;;;;;;7.25;7.25;;;;;20.48;54.09;101150.59;5055861;28;45336;-87
2022/09/04 01:38:55;;;;;;;;;7.50;6.00;;;;;20.44;53.87;101158.84;5025904;28;45544;-87
2022/09/04 01:41:26;;;;;;;;;5.75;4.75;;;;;20.38;53.39;101154.78;5055874;28;45616;-88
2022/09/04 01:43:52;;;;;;;;;4.75;4.75;;;;;20.31;52.88;101159.59;5037635;28;46715;-87
2022/09/04 01:46:42;;;;;;;;;7.25;6.00;;;;;20.30;52.98;101150.00;5038156;28;45517;-87
2022/09/04 01:49:31;;;;;;;;;4.75;4.00;;;;;20.26;52.99;101156.44;5055951;28;45415;-87
2022/09/04 01:52:18;;;;;;;;;6.75;5.25;;;;;20.23;52.98;101158.41;5040428;28;45521;-87
2022/09/04 01:54:55;;;;;;;;;3.00;3.00;;;;;20.19;52.76;101163.03;5040832;28;46939;-87
2022/09/04 01:57:33;;;;;;;;;5.25;5.25;;;;;20.15;52.54;101163.31;5041323;28;45793;-87
2022/09/04 02:00:15;;;;;;;;;6.25;5.00;;;;;20.15;52.57;101165.97;5059291;28;45357;-87
2022/09/04 02:03:25;;;;;;;;;5.25;4.00;;;;;20.11;52.55;101163.53;5041296;28;45586;-87
2022/09/04 02:06:01;;;;;;;;;4.00;4.00;;;;;20.09;52.89;101162.75;4977295;28;45538;-87
2022/09/04 02:09:10;;;;;;;;;8.00;5.00;;;;;20.07;52.90;101177.00;4960565;28;45829;-87
2022/09/04 02:11:37;;;;;;;;;5.00;5.00;;;;;20.03;52.63;101173.72;4919342;28;45654;-87
2022/09/04 02:14:19;;;;;;;;;8.25;6.50;;;;;19.99;52.98;101177.50;4903317;28;45347;-87
2022/09/04 02:17:07;;;;;;;;;4.50;4.00;;;;;19.99;53.06;101172.19;4918936;28;45469;-87
2022/09/04 02:20:08;;;;;;;;;4.00;4.00;;;;;19.97;53.07;101173.25;4918851;28;45456;-87
2022/09/04 02:22:58;;;;;;;;;6.50;5.00;;;;;19.93;53.24;101185.81;4861903;29;45501;-87
2022/09/04 02:25:31;;;;;;;;;4.75;4.75;;;;;19.88;53.06;101188.72;4846833;29;45439;-87
2022/09/04 02:27:59;;;;;;;;;6.25;4.75;;;;;19.86;52.93;101192.41;4846613;29;45400;-87
2022/09/04 02:30:31;;;;;;;;;8.50;5.25;;;;;19.89;53.10;101192.19;4862390;29;46066;-87
2022/09/04 02:33:20;;;;;;;;;6.25;5.50;;;;;19.91;53.83;101193.81;4846458;29;45526;-87
2022/09/04 02:36:07;;;;;;;;;4.00;4.00;;;;;19.91;53.55;101199.09;4862062;29;45420;-87
2022/09/04 02:38:56;;;;;;;;;4.75;4.75;;;;;19.85;52.72;101201.25;4861627;29;47164;-86
2022/09/04 02:42:02;;;;;;;;;7.50;5.00;;;;;19.79;52.62;101207.75;4871701;28;46040;-87
2022/09/04 02:44:43;;;;;;;;;3.75;3.75;;;;;19.75;52.53;101211.53;4865939;29;45796;-87
2022/09/04 02:47:44;;;;;;;;;4.25;4.25;;;;;19.72;52.65;101214.31;4883997;29;45442;-87
2022/09/04 02:50:40;;;;;;;;;3.75;3.75;;;;;19.72;53.31;101217.84;4899662;28;46965;-87
2022/09/04 02:53:27;;;;;;;;;5.75;3.75;;;;;19.72;52.75;101217.84;4883839;29;45506;-87
2022/09/04 02:56:23;;;;;;;;;5.00;5.00;;;;;19.70;52.52;101224.97;4883754;29;45376;-87
2022/09/04 02:59:07;;;;;;;;;5.75;5.25;;;;;19.67;52.79;101225.16;4941432;28;45470;-87
2022/09/04 03:01:45;;;;;;;;;6.50;5.00;;;;;19.70;53.21;101221.47;4976235;28;46160;-87
2022/09/04 03:04:51;;;;;;;;;4.00;4.00;;;;;19.68;52.75;101218.09;4960210;28;45856;-87
2022/09/04 03:07:25;;;;;;;;;5.00;3.50;;;;;19.66;53.01;101217.31;4917829;28;45407;-88
2022/09/04 03:09:55;;;;;;;;;5.50;4.75;;;;;19.65;52.63;101212.97;4902300;28;45575;-87
2022/09/04 03:12:28;;;;;;;;;7.00;4.00;;;;;19.63;52.77;101209.56;4902164;28;45436;-87
2022/09/04 03:14:59;;;;;;;;;4.00;4.00;;;;;19.59;52.57;101221.28;4902389;28;45381;-87
2022/09/04 03:17:29;;;;;;;;;6.00;4.00;;;;;19.62;53.28;101221.09;4925553;28;45648;-87
2022/09/04 03:20:07;;;;;;;;;6.25;4.75;;;;;19.62;52.70;101215.81;4995446;28;45370;-87
2022/09/04 03:22:38;;;;;;;;;4.75;4.25;;;;;19.62;53.55;101221.94;4995697;28;47126;-87
2022/09/04 03:25:22;;;;;;;;;6.25;5.00;;;;;19.59;52.59;101226.56;4979460;28;45730;-87
2022/09/04 03:27:47;;;;;;;;;5.25;4.00;;;;;19.51;52.66;101224.38;4995823;28;45326;-87
2022/09/04 03:30:13;;;;;;;;;5.25;5.00;;;;;19.50;53.23;101217.38;4995731;28;45540;-87
2022/09/04 03:33:02;;;;;;;;;5.00;4.25;;;;;19.52;53.71;101226.09;4986675;28;48308;-87
2022/09/04 03:35:37;;;;;;;;;6.75;5.50;;;;;19.54;53.43;101232.13;4975605;28;45916;-87
2022/09/04 03:38:14;;;;;;;;;7.00;5.00;;;;;19.52;53.10;101231.38;4967427;28;45457;-87
2022/09/04 03:41:17;;;;;;;;;7.00;4.75;;;;;19.48;53.41;101225.41;4995728;28;45417;-87
2022/09/04 03:44:19;;;;;;;;;5.00;5.00;;;;;19.45;53.41;101222.94;5050898;28;45562;-87
2022/09/04 03:47:02;;;;;;;;;5.00;4.00;;;;;19.44;53.50;101226.50;4959643;28;45422;-86
2022/09/04 03:49:56;;;;;;;;;4.50;4.50;;;;;19.43;53.65;101224.81;4959294;28;45538;-87
2022/09/04 03:53:06;;;;;;;;;5.00;4.75;;;;;19.42;53.48;101232.81;4975709;28;45397;-86
2022/09/04 03:55:35;;;;;;;;;6.00;3.75;;;;;19.40;54.32;101232.06;4975679;28;45490;-87
2022/09/04 03:58:07;;;;;;;;;4.00;4.00;;;;;19.35;53.00;101229.69;4975380;28;45359;-87
2022/09/04 04:00:45;;;;;;;;;3.00;3.00;;;;;19.32;53.18;101238.63;4975730;28;45392;-87
2022/09/04 04:03:33;;;;;;;;;3.00;3.00;;;;;19.33;54.16;101245.63;4959020;28;45560;-87
2022/09/04 04:06:40;;;;;;;;;4.00;4.00;;;;;19.34;53.58;101246.47;4975520;28;46497;-87
2022/09/04 04:09:28;;;;;;;;;5.25;4.50;;;;;19.37;54.24;101253.34;4972514;28;45459;-87
2022/09/04 04:11:53;;;;;;;;;3.50;3.50;;;;;19.38;54.28;101257.72;4959256;28;45454;-87
2022/09/04 04:14:24;;;;;;;;;3.67;3.67;;;;;19.36;54.61;101260.44;4974941;28;45310;-87
2022/09/04 04:17:02;;;;;;;;;4.00;3.50;;;;;19.33;54.70;101256.19;4974932;28;47431;-87
2022/09/04 04:19:41;;;;;;;;;4.00;4.00;;;;;19.28;54.33;101254.75;4975132;28;45856;-87
2022/09/04 04:22:57;;;;;;;;;3.25;3.25;;;;;19.20;54.77;101255.16;4975244;28;45544;-87
2022/09/04 04:25:41;;;;;;;;;7.25;4.00;;;;;19.10;53.93;101257.47;4975244;28;45744;-87
2022/09/04 04:28:21;;;;;;;;;5.25;3.75;;;;;19.04;54.51;101254.34;4958620;28;45475;-87
2022/09/04 04:30:51;;;;;;;;;5.50;5.00;;;;;19.03;54.98;101253.47;4975218;28;45996;-87
2022/09/04 04:33:24;;;;;;;;;6.75;4.00;;;;;19.01;54.46;101262.44;4958587;28;45404;-87
2022/09/04 04:36:05;;;;;;;;;4.25;4.00;;;;;18.97;54.86;101261.75;4975084;28;45433;-87
2022/09/04 04:38:50;;;;;;;;;7.25;5.00;;;;;18.94;55.51;101261.91;4983193;28;45357;-87
2022/09/04 04:41:31;;;;;;;;;4.00;4.00;;;;;18.93;55.25;101265.50;4974826;28;45766;-87
2022/09/04 04:44:15;;;;;;;;;4.00;4.00;;;;;18.89;55.38;101263.97;4974938;28;45620;-87
2022/09/04 04:46:53;;;;;;;;;6.50;5.00;;;;;18.87;55.77;101263.19;4974243;28;45587;-87
2022/09/04 04:49:56;;;;;;;;;5.00;4.25;;;;;18.83;56.00;101274.84;4958433;28;49023;-87
2022/09/04 04:52:43;;;;;;;;;6.00;5.00;;;;;18.80;55.69;101280.28;4935490;28;46448;-87
2022/09/04 04:55:34;;;;;;;;;6.00;5.75;;;;;18.77;56.26;101279.47;4936036;28;45315;-87
2022/09/04 04:57:59;;;;;;;;;3.00;3.00;;;;;18.77;56.03;101279.47;4935660;28;45583;-87
2022/09/04 05:00:32;;;;;;;;;8.00;5.00;;;;;18.80;55.99;101293.47;4950649;28;48120;-87
2022/09/04 05:03:57;;;;;;;;;5.00;5.00;;;;;18.76;56.40;101284.88;4941721;28;45440;-88
2022/09/04 05:06:59;;;;;;;;;6.75;5.50;;;;;18.75;56.69;101285.78;4916905;28;45371;-87
2022/09/04 05:09:35;;;;;;;;;6.00;5.00;;;;;18.73;56.13;101285.03;4900699;28;45283;-87
2022/09/04 05:12:09;;;;;;;;;6.00;5.00;;;;;18.72;56.80;101280.66;4932574;28;45458;-87
2022/09/04 05:14:40;;;;;;;;;6.00;5.00;;;;;18.70;56.62;101291.31;4900747;28;45723;-87
2022/09/04 05:17:18;;;;;;;;;5.50;5.00;;;;;18.69;56.80;101292.25;4932145;28;45449;-87
2022/09/04 05:19:48;;;;;;;;;8.50;6.25;;;;;18.72;56.93;101294.72;4932604;28;45470;-87
2022/09/04 05:22:19;;;;;;;;;5.50;5.50;;;;;18.76;56.61;101290.97;4916168;28;45540;-87
2022/09/04 05:24:56;;;;;;;;;5.00;5.00;;;;;18.79;56.19;101302.28;4931732;28;45481;-87
2022/09/04 05:27:21;;;;;;;;;5.00;4.75;;;;;18.82;56.41;101315.34;4916143;28;45292;-87
2022/09/04 05:30:22;;;;;;;;;5.33;5.33;;;;;18.86;56.06;101317.72;4935308;28;45365;-87
2022/09/04 05:33:03;;;;;;;;;5.00;5.00;;;;;18.88;56.51;101322.94;4928786;28;47197;-87
2022/09/04 05:35:57;;;;;;;;;7.25;6.25;;;;;18.90;56.87;101321.91;4938492;28;45740;-87
2022/09/04 05:38:47;;;;;;;;;6.50;5.25;;;;;18.97;56.79;101322.44;4954609;28;45475;-87
2022/09/04 05:41:35;;;;;;;;;7.50;5.75;;;;;18.99;56.32;101327.63;4954734;28;45484;-87
2022/09/04 05:44:27;;;;;;;;;5.00;5.00;;;;;18.98;56.86;101332.06;4938323;28;46295;-87
2022/09/04 05:47:13;;;;;;;;;7.50;6.00;;;;;19.03;56.86;101337.06;4954613;28;45299;-88
2022/09/04 05:49:58;;;;;;;;;7.75;7.00;;;;;19.10;57.40;101333.16;4954709;28;45306;-87
2022/09/04 05:52:29;;;;;;;;;6.00;5.25;;;;;19.13;57.01;101341.75;4954571;28;45391;-87
2022/09/04 05:55:09;;;;;;;;;5.25;5.25;;;;;19.17;57.12;101336.28;4954572;28;45478;-87
2022/09/04 05:57:54;;;;;;;;;6.00;5.75;;;;;19.21;56.85;101345.75;4954279;28;45345;-87
2022/09/04 06:00:20;;;;;;;;;5.00;5.00;;;;;19.22;57.45;101345.66;4938189;28;45344;-87
2022/09/04 06:03:21;;;;;;;;;4.75;4.75;;;;;19.28;57.06;101357.69;4954576;28;45596;-87
2022/09/04 06:06:13;;;;;;;;;6.00;5.75;;;;;19.34;56.71;101358.19;4954125;28;46297;-87
2022/09/04 06:08:57;;;;;;;;;7.75;6.00;;;;;19.39;56.75;101359.69;4938027;28;45442;-87
2022/09/04 06:11:47;;;;;;;;;5.00;5.00;;;;;19.45;56.76;101354.09;4954426;28;45416;-87
2022/09/04 06:14:21;;;;;;;;;4.50;4.50;;;;;19.54;56.77;101350.94;4961994;28;45317;-87
2022/09/04 06:16:59;;;;;;;;;5.00;5.00;;;;;19.59;56.80;101356.78;5055272;28;46618;-87
2022/09/04 06:19:30;;;;;;;;;6.25;5.75;;;;;19.63;56.59;101358.34;5055393;28;45806;-87
2022/09/04 06:22:39;;;;;;;;;7.00;7.00;;;;;19.68;56.59;101361.53;5037497;28;45375;-88
2022/09/04 06:25:04;;;;;;;;;7.75;6.75;;;;;19.71;56.56;101361.38;4973601;28;45380;-87
2022/09/04 06:27:54;;;;;;;;;8.33;6.00;;;;;19.75;57.00;101370.00;4957180;28;46331;-87
2022/09/04 06:30:19;;;;;;;;;8.00;6.25;;;;;19.83;56.25;101367.75;4973510;28;45451;-87
2022/09/04 06:32:47;;;;;;;;;5.75;5.75;;;;;19.90;55.87;101366.47;4957161;28;45337;-87
2022/09/04 06:35:15;;;;;;;;;6.00;5.00;;;;;19.94;56.73;101374.22;4973701;28;45297;-87
2022/09/04 06:38:19;;;;;;;;;7.50;6.00;;;;;19.92;57.19;101379.59;4959118;28;47180;-87
2022/09/04 06:40:55;;;;;;;;;6.75;6.75;;;;;19.89;57.14;101377.13;4960549;28;45325;-86
2022/09/04 06:43:26;;;;;;;;;4.00;4.00;;;;;19.87;57.55;101385.16;4976449;28;45329;-87
2022/09/04 06:45:57;;;;;;;;;7.25;4.75;;;;;19.90;56.93;101384.97;4976864;28;45420;-87
2022/09/04 06:48:38;;;;;;;;;6.25;5.25;;;;;19.99;57.08;101388.88;4960323;28;47313;-87
2022/09/04 06:51:15;;;;;;;;;7.00;6.25;;;;;20.03;57.81;101385.09;4976494;28;45820;-87
2022/09/04 06:53:53;;;;;;;;;6.75;6.50;;;;;20.04;56.29;101394.75;4976808;28;45350;-87
2022/09/04 06:56:40;;;;;;;;;7.00;5.50;;;;;20.07;57.06;101397.19;4960311;28;45502;-87
2022/09/04 06:59:46;;;;;;;;;6.25;5.50;;;;;20.06;55.88;101399.94;4959745;28;45460;-87
2022/09/04 07:02:18;;;;;;;;;6.75;6.75;;;;;20.09;56.59;101405.88;5000119;28;45666;-87
2022/09/04 07:05:11;;;;;;;;;7.00;5.00;;;;;20.14;56.35;101400.34;5040396;28;45417;-87
2022/09/04 07:08:11;;;;;;;;;6.50;6.50;;;;;20.17;56.19;101405.44;5040130;28;45404;-87
2022/09/04 07:10:55;;;;;;;;;7.00;5.00;;;;;20.18;56.81;101404.50;5039871;28;45743;-87
2022/09/04 07:13:39;;;;;;;;;7.25;6.25;;;;;20.16;55.25;101403.75;5057811;28;45752;-88
2022/09/04 07:16:25;;;;;;;;;9.75;6.00;;;;;20.09;56.05;101402.38;5058199;28;45385;-87
2022/09/04 07:19:19;;;;;;;;;7.25;7.00;;;;;20.13;56.17;101416.28;5057888;28;45372;-87
2022/09/04 07:22:10;;;;;;;;;6.00;6.00;;;;;20.18;54.70;101420.34;5057778;28;46550;-87
2022/09/04 07:24:56;;;;;;;;;5.00;5.00;;;;;20.17;54.05;101412.50;5057863;28;45682;-87
2022/09/04 07:27:40;;;;;;;;;7.00;6.00;;;;;20.18;54.10;101424.78;5057535;28;45252;-87
2022/09/04 07:30:08;;;;;;;;;7.00;6.00;;;;;20.20;53.78;101418.47;5039926;28;45292;-87
2022/09/04 07:32:33;;;;;;;;;5.75;5.75;;;;;20.24;53.98;101427.06;5039591;28;45495;-87
2022/09/04 07:35:06;;;;;;;;;7.00;6.50;;;;;20.29;54.13;101425.84;5039557;28;45456;-87
2022/09/04 07:37:57;;;;;;;;;6.75;6.00;;;;;20.39;54.01;101430.59;5057549;28;45379;-87
2022/09/04 07:40:25;;;;;;;;;4.25;4.25;;;;;20.39;52.86;101435.88;5039991;28;45350;-87
2022/09/04 07:43:28;;;;;;;;;3.00;3.00;;;;;20.40;53.54;101429.69;5039625;28;45283;-87
2022/09/04 07:46:02;;;;;;;;;5.25;5.25;;;;;20.44;52.83;101436.47;5039910;28;45721;-88
2022/09/04 07:48:44;;;;;;;;;4.75;4.00;;;;;20.53;52.98;101429.78;5056585;28;45318;-87
2022/09/04 07:51:17;;;;;;;;;8.00;6.00;;;;;20.65;53.24;101437.88;5022773;28;45570;-87
2022/09/04 07:54:15;;;;;;;;;6.25;5.00;;;;;20.76;52.97;101434.56;5039325;28;45500;-87
2022/09/04 07:56:59;;;;;;;;;6.00;4.00;;;;;20.83;51.66;101437.69;5039301;28;45334;-87
2022/09/04 07:59:43;;;;;;;;;4.50;3.75;;;;;20.84;51.57;101442.06;5057531;28;45428;-87
2022/09/04 08:02:11;;;;;;;;;4.75;4.75;;;;;20.85;51.83;101441.94;5057455;28;45434;-87
2022/09/04 08:04:49;;;;;;;;;5.50;5.00;;;;;20.92;51.18;101452.16;5057129;28;47380;-87
2022/09/04 08:07:46;;;;;;;;;7.00;4.75;;;;;20.96;50.88;101454.53;5039206;28;45730;-87
2022/09/04 08:10:29;;;;;;;;;4.25;4.25;;;;;20.97;51.18;101453.59;5040807;28;45570;-87
2022/09/04 08:12:55;;;;;;;;;8.00;5.75;;;;;21.05;51.45;101451.31;5057916;28;45560;-88
2022/09/04 08:15:41;;;;;;;;;5.50;5.00;;;;;21.17;51.71;101455.00;5057048;28;45505;-88
2022/09/04 08:18:12;;;;;;;;;8.00;5.50;;;;;21.26;50.43;101462.34;5056873;28;45364;-87
2022/09/04 08:20:44;;;;;;;;;5.00;5.00;;;;;21.32;50.67;101466.44;5057120;28;45329;-88
2022/09/04 08:23:29;;;;;;;;;4.00;4.00;;;;;21.40;50.62;101464.16;5039083;28;45608;-87
2022/09/04 08:26:06;;;;;;;;;7.25;4.00;;;;;21.52;50.64;101467.00;5038478;28;46303;-87
2022/09/04 08:28:55;;;;;;;;;5.25;5.00;;;;;21.59;50.08;101470.97;5056857;28;45388;-87
2022/09/04 08:31:28;;;;;;;;;5.75;5.75;;;;;21.66;50.00;101469.63;5057002;28;45318;-87
2022/09/04 08:34:07;;;;;;;;;6.00;5.00;;;;;21.73;49.90;101459.47;5056881;28;45294;-87
2022/09/04 08:36:38;;;;;;;;;9.00;6.50;;;;;21.83;49.56;101473.81;5056679;28;47501;-88
2022/09/04 08:39:33;;;;;;;;;7.50;5.00;;;;;21.93;49.35;101468.78;5038320;28;45361;-87
2022/09/04 08:42:16;;;;;;;;;6.00;6.00;;;;;21.98;48.96;101467.53;4958757;28;45393;-88
2022/09/04 08:45:21;;;;;;;;;9.00;6.00;;;;;22.06;48.75;101472.31;4975032;28;45416;-87
2022/09/04 08:48:07;;;;;;;;;6.75;5.75;;;;;22.09;48.37;101471.28;4974734;28;45714;-87
2022/09/04 08:51:09;;;;;;;;;3.00;3.00;;;;;22.18;48.74;101471.50;4974582;28;45730;-87
2022/09/04 08:54:01;;;;;;;;;7.00;5.00;;;;;22.22;47.91;101465.06;4958164;28;45401;-87
2022/09/04 08:56:35;;;;;;;;;9.00;5.00;;;;;22.24;47.69;101465.78;4974768;28;45622;-88
2022/09/04 08:59:18;;;;;;;;;6.00;4.00;;;;;22.28;47.24;101470.94;4974260;28;45454;-87
2022/09/04 09:02:02;;;;;;;;;4.00;4.00;;;;;22.32;47.36;101475.91;4974711;28;45322;-86
2022/09/04 09:05:05;;;;;;;;;5.00;3.75;;;;;22.38;46.66;101472.88;4958573;28;45543;-87
2022/09/04 09:07:57;;;;;;;;;4.75;2.50;;;;;22.48;46.58;101472.25;4974400;28;45439;-87
2022/09/04 09:10:36;;;;;;;;;2.50;2.50;;;;;22.57;46.02;101474.28;4974398;28;46414;-87
2022/09/04 09:13:20;;;;;;;;;4.50;3.00;;;;;22.68;45.36;101479.72;4974453;28;45432;-87
2022/09/04 09:16:05;;;;;;;;;3.25;3.25;;;;;22.79;44.32;101473.66;4958398;28;45459;-87
2022/09/04 09:18:36;;;;;;;;;2.00;2.00;;;;;22.90;45.33;101475.56;4984585;28;45427;-87
2022/09/04 09:21:07;;;;;;;;;2.75;2.75;;;;;22.98;44.72;101478.53;5038167;28;46391;-87
2022/09/04 09:24:05;;;;;;;;;3.50;3.25;;;;;23.07;43.37;101480.59;5055922;28;45318;-87
2022/09/04 09:26:37;;;;;;;;;5.00;3.25;;;;;23.17;44.07;101478.97;5056275;28;45366;-87
2022/09/04 09:29:38;;;;;;;;;4.75;3.00;;;;;23.29;44.01;101473.75;5038277;28;45579;-87
2022/09/04 09:32:31;;;;;;;;;4.25;3.25;;;;;23.42;43.04;101479.03;4973888;28;46368;-87
2022/09/04 09:35:22;;;;;;;;;4.25;3.00;;;;;23.50;43.71;101468.72;4974202;28;45706;-87
2022/09/04 09:38:18;;;;;;;;;4.75;3.50;;;;;23.62;43.14;101470.47;4957376;28;45461;-87
2022/09/04 09:41:05;;;;;;;;;2.75;2.50;;;;;23.71;43.49;101475.13;4974275;28;45606;-88
2022/09/04 09:43:46;;;;;;;;;4.00;2.75;;;;;23.88;43.23;101475.72;4974034;28;47121;-87
2022/09/04 09:46:37;;;;;;;;;2.75;2.75;;;;;23.96;42.52;101470.72;4973978;28;45632;-87
2022/09/04 09:49:08;;;;;;;;;5.25;3.50;;;;;24.03;41.94;101471.94;4958174;28;45531;-87
2022/09/04 09:51:39;;;;;;;;;4.00;4.00;;;;;24.10;42.84;101480.31;4973712;28;45407;-87
2022/09/04 09:54:23;;;;;;;;;5.25;3.00;;;;;24.17;41.26;101480.72;4974038;28;46270;-88
2022/09/04 09:57:06;;;;;;;;;6.00;3.00;;;;;24.24;41.72;101472.16;4974037;28;45484;-87
2022/09/04 09:59:58;;;;;;;;;3.00;2.25;;;;;24.37;41.91;101471.22;4957840;28;45507;-87
2022/09/04 10:02:51;;;;;;;;;3.00;3.00;;;;;24.52;41.88;101473.59;4974093;28;45489;-87
2022/09/04 10:05:38;;;;;;;;;4.00;2.00;;;;;24.68;41.45;101472.41;4957392;28;47293;-87
2022/09/04 10:08:41;;;;;;;;;4.50;3.00;;;;;24.73;41.01;101464.94;4996301;28;45423;-87
2022/09/04 10:11:18;;;;;;;;;3.00;3.00;;;;;24.84;41.10;101467.59;5055578;28;45427;-87
2022/09/04 10:14:08;;;;;;;;;4.75;3.75;;;;;24.91;41.37;101463.50;5024540;28;45355;-88
2022/09/04 10:16:56;;;;;;;;;4.75;3.00;;;;;25.01;40.92;101468.94;5040803;28;47694;-87
2022/09/04 10:19:27;;;;;;;;;4.25;3.00;;;;;25.09;40.91;101463.88;5058751;28;45377;-87
2022/09/04 10:22:11;;;;;;;;;4.00;4.00;;;;;25.16;39.54;101460.72;5040590;28;45381;-87
2022/09/04 10:25:34;;;;;;;;;3.75;2.75;;;;;25.23;40.29;101452.13;5058949;28;45365;-87
2022/09/04 10:28:03;;;;;;;;;4.00;3.00;;;;;25.27;40.02;101458.06;4976912;28;47332;-87
2022/09/04 10:30:36;;;;;;;;;4.00;3.00;;;;;25.32;39.95;101455.91;4977081;28;45389;-87
2022/09/04 10:33:38;;;;;;;;;3.00;3.00;;;;;25.36;40.62;101459.16;4977015;28;45263;-87
2022/09/04 10:36:24;;;;;;;;;4.50;4.00;;;;;25.45;40.23;101453.94;4976550;28;45355;-87
2022/09/04 10:42:21;;;;;;;;;3.25;3.25;;;;;25.56;40.16;101450.41;4976899;28;45759;-87
2022/09/04 10:45:01;;;;;;;;;4.00;2.00;;;;;25.68;38.98;101438.72;4976812;28;45421;-87
2022/09/04 10:47:34;;;;;;;;;3.75;3.50;;;;;25.76;38.85;101445.25;4976596;28;45434;-87
2022/09/04 10:49:59;;;;;;;;;5.00;3.00;;;;;25.84;39.45;101438.31;4959901;28;46363;-87
2022/09/04 10:52:52;;;;;;;;;5.33;2.00;;;;;25.95;38.51;101440.13;4960150;28;45403;-88
2022/09/04 10:55:35;;;;;;;;;4.00;4.00;;;;;26.02;38.48;101440.44;4976576;28;45528;-88
2022/09/04 10:58:25;;;;;;;;;4.00;3.00;;;;;26.12;39.08;101443.22;4991467;28;45535;-87
2022/09/04 11:01:26;;;;;;;;;4.00;3.00;;;;;26.28;38.70;101438.28;5040389;28;45520;-87
2022/09/04 11:04:12;;;;;;;;;4.25;3.50;;;;;26.41;38.19;101432.72;5057378;28;45364;-87
2022/09/04 11:06:51;;;;;;;;;4.00;4.00;;;;;26.58;38.43;101426.78;5041419;28;45347;-88
2022/09/04 11:09:39;;;;;;;;;5.50;5.00;;;;;26.77;37.93;101430.59;5058223;28;45366;-88
2022/09/04 11:12:21;;;;;;;;;3.50;3.50;;;;;26.94;38.69;101429.94;5023349;28;47294;-87
2022/09/04 11:15:21;;;;;;;;;4.00;3.75;;;;;27.14;38.63;101432.69;5040108;28;45250;-88
2022/09/04 11:17:56;;;;;;;;;3.25;3.00;;;;;27.40;37.90;101428.56;5040157;28;45433;-87
2022/09/04 11:20:52;;;;;;;;;4.00;3.50;;;;;27.64;37.16;101423.81;5040106;28;45658;-88
2022/09/04 11:23:55;;;;;;;;;3.50;2.75;;;;;27.93;37.33;101421.19;5057815;28;45624;-87
2022/09/04 11:26:46;;;;;;;;;4.00;3.00;;;;;28.26;36.63;101419.88;5057850;28;45687;-87
2022/09/04 11:29:46;;;;;;;;;2.75;2.75;;;;;28.62;34.82;101428.16;5057932;28;45412;-87
2022/09/04 11:32:30;;;;;;;;;4.50;3.50;;;;;29.01;33.51;101427.13;5039846;28;45635;-87
2022/09/04 11:35:14;;;;;;;;;1.25;1.25;;;;;30.20;34.10;101421.66;5057679;28;46252;-87
2022/09/04 11:38:42;;;;;;;;;4.00;2.00;;;;;34.24;30.52;101426.66;5057500;28;45373;-88
2022/09/04 11:41:42;;;;;;;;;5.00;3.00;;;;;37.72;27.27;101423.22;4959835;28;45680;-88
2022/09/04 11:44:19;;;;;;;;;5.00;2.00;;;;;40.25;23.45;101427.59;4965800;28;45505;-87
2022/09/04 11:47:11;;;;;;;;;2.50;2.50;;;;;42.13;22.03;101434.94;4976040;28;46386;-88
2022/09/04 11:50:01;;;;;;;;;5.25;2.50;;;;;43.56;19.62;101429.84;4975970;28;45782;-88
2022/09/04 11:52:41;;;;;;;;;3.25;2.00;;;;;44.83;18.46;101433.63;4959621;28;45415;-88
2022/09/04 11:55:28;;;;;;;;;3.75;3.25;;;;;45.73;17.89;101435.94;4975992;28;45335;-88
2022/09/04 11:58:09;;;;;;;;;4.00;3.75;;;;;46.23;17.33;101430.19;4959239;28;45490;-86
2022/09/04 12:00:44;;;;;;;;;3.00;2.00;;;;;46.79;15.56;101435.97;4975531;28;45751;-86
2022/09/04 12:03:57;;;;;;;;;4.00;2.50;;;;;46.96;15.63;101435.75;4975400;28;45557;-86
2022/09/04 12:06:28;;;;;;;;;2.75;2.75;;;;;47.40;14.29;101421.47;4975658;28;45673;-86
2022/09/04 12:09:12;;;;;;;;;2.75;2.75;;;;;47.61;13.76;101429.78;4975575;28;45657;-86
2022/09/04 12:11:53;;;;;;;;;2.75;2.50;;;;;48.18;13.36;101434.06;4975472;28;45820;-86
2022/09/04 12:14:37;;;;;;;;;2.50;2.50;;;;;48.46;13.27;101423.50;5003465;28;45318;-87
2022/09/04 12:17:36;;;;;;;;;2.50;2.50;;;;;49.24;14.20;101421.94;5056946;28;45465;-86
2022/09/04 12:20:23;;;;;;;;;3.00;2.00;;;;;49.85;13.32;101423.34;5056935;28;46326;-86
2022/09/04 12:23:01;;;;;;;;;3.00;2.25;;;;;50.44;11.47;101415.75;5056761;28;45364;-86
2022/09/04 12:25:49;;;;;;;;;2.00;2.00;;;;;50.54;12.72;101412.03;5056926;28;45379;-86
2022/09/04 12:29:02;;;;;;;;;2.00;2.00;;;;;51.03;11.70;101407.19;5039083;28;45619;-87
2022/09/04 12:31:32;;;;;;;;;3.50;2.75;;;;;51.03;11.82;101407.19;5049081;28;45540;-86
2022/09/04 12:34:31;;;;;;;;;3.00;3.00;;;;;50.88;11.97;101403.53;5056254;28;45811;-86
2022/09/04 12:37:21;;;;;;;;;4.50;3.75;;;;;50.36;11.52;101405.34;5056812;28;45432;-87
2022/09/04 12:40:08;;;;;;;;;3.00;3.00;;;;;49.64;10.82;101399.78;5057175;28;45417;-87
2022/09/04 12:42:52;;;;;;;;;3.00;3.00;;;;;48.74;11.89;101402.69;5056716;28;45582;-86
2022/09/04 12:45:28;;;;;;;;;3.25;1.50;;;;;48.27;13.19;101393.75;5038261;28;45893;-86